AF1311 / F-HBLH 7700 Squawk Report (14th of November, 2019)

Time Lat Lon Altitude Heading Speed Vertical Rate
2019-11-14 06:11:31 GMT 49.253014 3.571424 10,450 221 289 64
2019-11-14 06:11:22 GMT 49.262417 3.583784 10,550 221 289 64
2019-11-14 06:11:17 GMT 49.267815 3.590505 10,875 221 289 64
2019-11-14 06:11:10 GMT 49.274010 3.598673 11,000 221 289 64
2019-11-14 06:10:53 GMT 49.290302 3.620501 11,000 222 283 -1472
2019-11-14 06:10:48 GMT 49.296307 3.628596 11,000 222 283 -1472
2019-11-14 06:10:35 GMT 49.311714 3.649123 11,000 222 283 -1472
2019-11-14 06:10:24 GMT 49.320515 3.660905 11,000 222 283 -1472
2019-11-14 06:10:20 GMT 49.325401 3.667482 10,850 222 283 -1472
2019-11-14 06:10:04 GMT 49.339787 3.687214 11,025 222 291 -2048
2019-11-14 06:09:59 GMT 49.345001 3.692635 11,275 222 291 -2048
2019-11-14 06:09:52 GMT 49.353100 3.703115 11,250 223 295 -2112
2019-11-14 06:09:41 GMT 49.362083 3.715186 11,500 223 295 -2112
2019-11-14 06:09:37 GMT 49.370090 3.726389 11,800 223 295 -2112
2019-11-14 06:09:25 GMT 49.380287 3.740628 12,175 223 295 -2112
2019-11-14 06:09:20 GMT 49.386387 3.748723 12,450 223 295 -2112
2019-11-14 06:09:16 GMT 49.403980 3.762022 12,650 228 307 -1984
2019-11-14 06:09:03 GMT 49.403980 3.762022 13,100 234 323 -1792
2019-11-14 06:08:55 GMT 49.412781 3.775466 13,175 234 323 -1792
2019-11-14 06:08:51 GMT 49.418087 3.782911 13,425 234 323 -1792
2019-11-14 06:08:44 GMT 49.426094 3.780887 13,725 242 347 -1792
2019-11-14 06:08:38 GMT 49.438522 3.776625 13,850 242 347 -1792
2019-11-14 06:08:33 GMT 49.444714 3.781895 14,125 247 360 -1536
2019-11-14 06:08:26 GMT 49.451698 3.792733 14,250 247 360 -1536
2019-11-14 06:08:21 GMT 49.456120 3.802828 14,375 248 359 -1472
2019-11-14 06:08:15 GMT 49.460682 3.813072 14,600 250 357 -1472
2019-11-14 06:08:11 GMT 49.465801 3.827399 14,750 254 343 -1408
2019-11-14 06:08:04 GMT 49.469898 3.841726 14,875 254 343 -1408
2019-11-14 06:07:58 GMT 49.474506 3.857166 15,100 261 344 -1344
2019-11-14 06:07:53 GMT 49.477905 3.866222 15,150 261 344 -1344
2019-11-14 06:07:44 GMT 49.482796 3.880623 15,400 261 344 -1344
2019-11-14 06:07:36 GMT 49.485310 3.902225 15,650 261 344 -1344
2019-11-14 06:07:28 GMT 49.487404 3.920635 15,850 260 363 -1536
2019-11-14 06:07:23 GMT 49.488289 3.932586 15,900 260 363 -1536
2019-11-14 06:07:17 GMT 49.489590 3.943201 16,150 260 363 -1536
2019-11-14 06:07:05 GMT 49.493595 3.975418 16,375 260 363 -1536
2019-11-14 06:06:48 GMT 49.508163 4.015874 16,775 260 385 -1600
2019-11-14 06:06:44 GMT 49.498390 4.025598 16,875 260 372 -1600
2019-11-14 06:06:39 GMT 49.501183 4.040296 17,050 260 372 -1600
2019-11-14 06:06:32 GMT 49.503510 4.057221 17,100 260 381 -1600
2019-11-14 06:06:23 GMT 49.505699 4.075111 17,350 260 381 -1600
2019-11-14 06:06:12 GMT 49.508911 4.100721 17,575 260 381 -1600
2019-11-14 06:06:05 GMT 49.511608 4.124698 17,875 260 381 -1600
2019-11-14 06:05:51 GMT 49.515705 4.159364 18,150 260 382 -1536
2019-11-14 06:05:44 GMT 49.517803 4.177700 18,400 260 382 -1536
2019-11-14 06:05:32 GMT 49.521805 4.210213 18,775 260 383 -1664
2019-11-14 06:05:23 GMT 49.524178 4.231073 19,000 260 383 -1664
2019-11-14 06:05:10 GMT 49.528603 4.264774 19,275 260 383 -1664
2019-11-14 06:05:03 GMT 49.530788 4.283703 19,550 260 383 -1664
2019-11-14 06:04:54 GMT 49.547783 4.300851 19,850 260 383 -1664
2019-11-14 06:03:58 GMT 49.551319 4.456292 21,275 0 0 0
2019-11-14 06:02:55 GMT 49.572781 4.628882 23,000 261 394 -1664
2019-11-14 06:02:46 GMT 49.575806 4.656273 23,375 260 399 -1664
2019-11-14 06:02:40 GMT 49.577110 4.670303 23,550 260 399 -1664
2019-11-14 06:02:33 GMT 49.579807 4.694503 24,000 260 399 -1664
2019-11-14 06:01:26 GMT 49.598892 4.861762 25,575 259 408 -1860
2019-11-14 06:01:16 GMT 49.601704 4.889111 25,875 260 399 -2460
2019-11-14 06:01:06 GMT 49.605179 4.916913 26,050 259 440 -2460
2019-11-14 06:00:56 GMT 49.609047 4.947804 26,450 261 371 -1320
2019-11-14 06:00:46 GMT 49.611233 4.974087 26,650 262 374 -840
2019-11-14 06:00:36 GMT 49.615299 5.003500 27,300 260 402 -1740
2019-11-14 06:00:26 GMT 49.618538 5.031581 27,250 259 419 -1920
2019-11-14 06:00:16 GMT 49.621632 5.060114 27,625 259 412 -1740
2019-11-14 06:00:06 GMT 49.625175 5.089241 27,800 260 409 -1560
2019-11-14 05:59:56 GMT 49.628326 5.118109 28,100 260 402 -1500
2019-11-14 05:59:39 GMT 49.634270 5.168301 28,625 260 412 -1440
2019-11-14 05:59:14 GMT 49.642277 5.242054 29,400 260 401 -780
2019-11-14 05:58:38 GMT 49.653610 5.344625 30,350 260 407 -960
2019-11-14 05:58:25 GMT 49.657555 5.380702 30,500 260 432 -1140
2019-11-14 05:58:12 GMT 49.661674 5.417958 30,700 260 421 -1200
2019-11-14 05:58:01 GMT 49.665615 5.453864 30,900 264 420 -1020
2019-11-14 05:57:48 GMT 49.668243 5.492759 31,150 261 429 -840
2019-11-14 05:57:35 GMT 49.672962 5.525914 31,375 260 435 -840
2019-11-14 05:57:14 GMT 49.679569 5.587391 32,000 265 421 0
2019-11-14 05:57:04 GMT 49.683842 5.621036 31,825 259 397 -300
2019-11-14 05:56:53 GMT 49.686806 5.651547 32,000 261 425 0
2019-11-14 05:56:41 GMT 49.690262 5.687652 32,000 258 437 0
2019-11-14 05:56:31 GMT 49.694515 5.719997 32,000 261 387 0
2019-11-14 05:56:21 GMT 49.697063 5.747177 32,000 259 421 0
2019-11-14 05:56:11 GMT 49.703007 5.806380 32,000 259 470 0
2019-11-14 05:56:01 GMT 49.706360 5.838310 32,000 260 412 0
2019-11-14 05:55:50 GMT 49.706360 5.838310 32,000 260 427 0
2019-11-14 05:55:38 GMT 49.710712 5.875108 32,000 260 430 0
2019-11-14 05:55:27 GMT 49.714203 5.907664 32,000 260 427 0
2019-11-14 05:55:17 GMT 49.717113 5.937930 32,000 259 435 60
2019-11-14 05:55:01 GMT 49.722794 5.987068 32,000 261 397 -120
2019-11-14 05:54:49 GMT 49.726357 6.022082 32,000 261 442 0
2019-11-14 05:54:39 GMT 49.729355 6.052434 32,000 260 431 0
2019-11-14 05:54:26 GMT 49.733784 6.092498 32,000 261 420 0
2019-11-14 05:53:59 GMT 49.742077 6.174747 32,000 260 404 0
2019-11-14 05:53:49 GMT 49.745293 6.205140 32,000 263 434 60
2019-11-14 05:53:36 GMT 49.752224 6.272854 32,025 258 403 0
2019-11-14 05:53:26 GMT 49.752224 6.272854 32,000 260 438 0
2019-11-14 05:53:14 GMT 49.755817 6.308240 32,000 261 426 0
2019-11-14 05:53:03 GMT 49.759415 6.342010 32,000 261 418 0
2019-11-14 05:52:38 GMT 49.766911 6.416750 32,000 261 419 0
2019-11-14 05:52:19 GMT 49.772343 6.472486 32,000 260 423 0
2019-11-14 05:52:09 GMT 49.775509 6.502429 32,000 260 474 0
2019-11-14 05:51:58 GMT 49.778992 6.538451 32,000 263 412 0
2019-11-14 05:51:47 GMT 49.781605 6.569965 32,000 264 425 0
2019-11-14 05:51:25 GMT 49.786255 6.635440 32,000 265 429 0
2019-11-14 05:51:09 GMT 49.788307 6.686593 32,000 264 412 0
2019-11-14 05:50:51 GMT 49.791718 6.740343 32,000 265 412 0
2019-11-14 05:50:34 GMT 49.797718 6.847693 32,000 265 414 0
2019-11-14 05:50:15 GMT 49.797718 6.847693 32,000 265 417 0
2019-11-14 05:50:02 GMT 49.797348 6.910549 32,000 265 423 0
2019-11-14 05:49:51 GMT 49.801910 6.944992 32,000 265 423 0
2019-11-14 05:49:42 GMT 49.803211 6.965629 32,000 265 431 0
2019-11-14 05:49:33 GMT 49.805122 6.996435 32,000 265 427 0
2019-11-14 05:49:21 GMT 49.807308 7.032289 32,000 265 408 0
2019-11-14 05:49:08 GMT 49.808987 7.074008 32,000 265 444 0
2019-11-14 05:48:58 GMT 49.810616 7.101028 32,000 265 397 0
2019-11-14 05:48:51 GMT 49.811405 7.116171 32,000 266 449 0
2019-11-14 05:48:39 GMT 49.813686 7.161379 32,000 265 409 0
2019-11-14 05:48:32 GMT 49.814293 7.173478 32,000 265 411 0
2019-11-14 05:48:18 GMT 49.816387 7.219799 32,000 265 415 0
2019-11-14 05:48:12 GMT 49.818810 7.273320 32,000 265 400 0
2019-11-14 05:47:59 GMT 49.819790 7.290129 32,000 265 426 0
2019-11-14 05:47:48 GMT 49.819790 7.290129 32,000 265 424 0
2019-11-14 05:47:38 GMT 49.821362 7.321149 32,000 265 414 0
2019-11-14 05:47:26 GMT 49.823143 7.358983 32,000 265 411 0
2019-11-14 05:47:16 GMT 49.825512 7.412208 32,000 266 411 0
2019-11-14 05:47:08 GMT 49.825977 7.431880 32,000 265 440 0
2019-11-14 05:47:00 GMT 49.829189 7.489410 32,000 265 426 0
2019-11-14 05:46:48 GMT 49.829189 7.489410 32,000 265 413 0
2019-11-14 05:46:38 GMT 49.830120 7.522814 32,000 265 413 0
2019-11-14 05:46:28 GMT 49.831284 7.552878 32,000 260 452 0
2019-11-14 05:46:21 GMT 49.832214 7.576484 32,025 265 395 0
2019-11-14 05:46:06 GMT 49.833893 7.618796 32,000 266 445 0
2019-11-14 05:45:59 GMT 49.836357 7.636612 32,000 270 406 0
2019-11-14 05:45:56 GMT 49.835102 7.648117 32,000 266 422 64
2019-11-14 05:45:45 GMT 49.836498 7.678181 32,000 266 406 0
2019-11-14 05:45:40 GMT 49.837708 7.696368 32,000 266 419 0
2019-11-14 05:45:31 GMT 49.839104 7.737715 32,000 266 408 0
2019-11-14 05:45:21 GMT 49.840408 7.750929 32,000 265 416 0
2019-11-14 05:45:16 GMT 49.841293 7.767705 32,000 265 416 0
2019-11-14 05:45:05 GMT 49.842922 7.798586 32,000 265 450 0
2019-11-14 05:44:55 GMT 49.844193 7.811838 32,000 266 417 0
2019-11-14 05:44:44 GMT 49.845810 7.866582 32,000 265 417 0
2019-11-14 05:44:38 GMT 49.846413 7.878830 32,000 266 421 0
2019-11-14 05:44:27 GMT 49.847996 7.913274 32,000 266 419 0
2019-11-14 05:44:13 GMT 49.848881 7.962267 32,000 266 426 0
2019-11-14 05:44:06 GMT 49.851486 8.019574 32,000 265 430 0
2019-11-14 05:43:54 GMT 49.852280 8.034421 32,000 266 443 0
2019-11-14 05:43:49 GMT 49.854607 8.079925 32,000 266 407 0
2019-11-14 05:43:33 GMT 49.854607 8.079925 32,000 266 421 0
2019-11-14 05:43:26 GMT 49.855492 8.100784 32,000 266 441 0
2019-11-14 05:43:14 GMT 49.857216 8.133966 32,000 266 390 0
2019-11-14 05:43:05 GMT 49.858284 8.157274 32,000 265 425 0
2019-11-14 05:42:57 GMT 49.859680 8.183627 32,000 266 402 0
2019-11-14 05:42:45 GMT 49.860607 8.201047 32,000 266 433 0
2019-11-14 05:42:35 GMT 49.861992 8.230398 32,000 267 402 0
2019-11-14 05:42:24 GMT 49.863285 8.262980 32,000 266 424 0
2019-11-14 05:42:14 GMT 49.864471 8.293380 32,000 266 433 0
2019-11-14 05:42:03 GMT 49.865742 8.326242 32,000 266 417 0
2019-11-14 05:41:51 GMT 49.867111 8.362385 32,000 267 403 0
2019-11-14 05:41:41 GMT 49.868038 8.391311 32,000 265 443 60
2019-11-14 05:41:31 GMT 49.869537 8.423037 32,000 266 423 120
2019-11-14 05:41:21 GMT 49.872082 8.484912 32,000 266 417 -60
2019-11-14 05:41:10 GMT 49.872082 8.484912 32,000 266 436 0
2019-11-14 05:41:00 GMT 49.873150 8.516209 32,000 266 414 0
2019-11-14 05:40:50 GMT 49.874233 8.546461 32,000 266 417 0
2019-11-14 05:40:40 GMT 49.875374 8.577700 32,000 266 412 0
2019-11-14 05:40:30 GMT 49.876907 8.631320 32,000 266 425 0
2019-11-14 05:40:23 GMT 49.878719 8.681723 32,000 266 458 0
2019-11-14 05:40:14 GMT 49.879723 8.696497 32,000 266 454 0
2019-11-14 05:40:01 GMT 49.879723 8.696497 32,000 266 435 0
2019-11-14 05:39:51 GMT 49.881981 8.744226 32,000 267 422 0
2019-11-14 05:39:41 GMT 49.885983 8.801608 32,000 265 396 120
2019-11-14 05:39:32 GMT 49.885983 8.801608 32,000 266 425 780
2019-11-14 05:39:22 GMT 49.887379 8.833527 31,975 266 420 840
2019-11-14 05:39:14 GMT 49.888309 8.856910 31,825 266 415 0
2019-11-14 05:39:02 GMT 49.895203 8.892690 31,650 266 389 600
2019-11-14 05:38:54 GMT 49.894409 8.915925 31,575 266 394 240
2019-11-14 05:38:48 GMT 49.896503 8.928099 31,550 267 411 240
2019-11-14 05:38:41 GMT 49.888306 8.932706 31,500 268 392 660
2019-11-14 05:38:31 GMT 49.890591 8.981026 31,400 273 399 420
2019-11-14 05:38:20 GMT 49.886822 9.014579 31,225 277 390 480
2019-11-14 05:38:08 GMT 49.884449 9.027465 31,100 283 392 360
2019-11-14 05:37:58 GMT 49.880333 9.054882 31,025 284 389 660
2019-11-14 05:37:48 GMT 49.875679 9.081898 30,900 284 408 420
2019-11-14 05:37:37 GMT 49.870102 9.113404 30,775 284 416 660
2019-11-14 05:37:27 GMT 49.865444 9.142073 30,700 286 374 1560
2019-11-14 05:37:15 GMT 49.851723 9.217826 30,450 285 407 720
2019-11-14 05:37:05 GMT 49.851723 9.217826 30,325 284 391 780
2019-11-14 05:36:59 GMT 49.848324 9.237201 29,825 286 375 840
2019-11-14 05:36:54 GMT 49.846600 9.245886 29,975 285 414 840
2019-11-14 05:36:46 GMT 49.842411 9.269417 29,950 285 372 1740
2019-11-14 05:36:42 GMT 49.840221 9.280775 29,750 285 416 1140
2019-11-14 05:36:30 GMT 49.831005 9.332218 29,525 286 379 1140
2019-11-14 05:36:24 GMT 49.831005 9.332218 29,425 285 397 1020
2019-11-14 05:36:18 GMT 49.828304 9.347881 29,400 285 397 1020
2019-11-14 05:36:11 GMT 49.826210 9.361317 29,150 286 392 600
2019-11-14 05:35:57 GMT 49.819599 9.400288 29,025 286 392 600
2019-11-14 05:35:49 GMT 49.816109 9.421890 28,825 286 392 600
2019-11-14 05:35:37 GMT 49.813408 9.458412 28,550 285 410 1260
2019-11-14 05:35:26 GMT 49.806377 9.492707 28,350 287 365 1320
2019-11-14 05:35:22 GMT 49.803398 9.505772 28,325 289 401 1080
2019-11-14 05:35:10 GMT 49.796696 9.533164 28,100 293 399 1260
2019-11-14 05:35:03 GMT 49.793392 9.545486 27,975 293 399 1260
2019-11-14 05:34:58 GMT 49.788502 9.560704 27,925 295 393 780
2019-11-14 05:34:47 GMT 49.780403 9.587427 27,800 296 377 1260
2019-11-14 05:34:39 GMT 49.773979 9.606802 27,575 297 375 960
2019-11-14 05:34:28 GMT 49.764389 9.636123 27,450 297 371 780
2019-11-14 05:34:21 GMT 49.759594 9.650673 27,250 296 387 1472
2019-11-14 05:34:16 GMT 49.754890 9.665519 27,225 296 387 1472
2019-11-14 05:34:06 GMT 49.746422 9.692836 27,075 296 376 1472
2019-11-14 05:33:59 GMT 49.741718 9.707163 26,825 297 384 1472
2019-11-14 05:33:52 GMT 49.735386 9.727206 26,650 297 384 1472
2019-11-14 05:33:46 GMT 49.730778 9.740122 26,600 296 378 1536
2019-11-14 05:33:40 GMT 49.725285 9.756973 26,350 296 377 1600
2019-11-14 05:33:28 GMT 49.716022 9.785998 26,100 296 377 1600
2019-11-14 05:33:22 GMT 49.711086 9.800695 25,900 296 377 1600
2019-11-14 05:33:13 GMT 49.705917 9.817472 25,850 296 368 1600
2019-11-14 05:33:06 GMT 49.699215 9.839667 25,675 296 368 1600
2019-11-14 05:33:01 GMT 49.695492 9.851916 25,425 296 368 1600
2019-11-14 05:32:56 GMT 49.691723 9.864015 25,350 296 368 1600
2019-11-14 05:32:49 GMT 49.685715 9.883613 25,075 296 368 1600
2019-11-14 05:32:38 GMT 49.678314 9.907886 24,775 296 368 1600
2019-11-14 05:32:26 GMT 49.669098 9.937208 24,500 296 368 1600
2019-11-14 05:32:15 GMT 49.661324 9.961036 24,250 296 368 1664
2019-11-14 05:32:10 GMT 49.657597 9.972691 24,050 296 368 1664
2019-11-14 05:32:02 GMT 49.651501 9.991694 24,000 296 368 1664
2019-11-14 05:31:57 GMT 49.647823 10.003423 23,525 296 368 1664
2019-11-14 05:31:45 GMT 49.637020 10.034526 23,475 294 355 1600
2019-11-14 05:31:37 GMT 49.630409 10.053975 22,975 294 355 1600
2019-11-14 05:31:27 GMT 49.622498 10.077135 22,875 285 361 0
2019-11-14 05:31:17 GMT 49.617004 10.096584 22,700 285 361 0
2019-11-14 05:31:06 GMT 49.610394 10.124421 22,450 285 361 0
2019-11-14 05:30:56 GMT 49.604481 10.148769 22,150 285 361 0
2019-11-14 05:30:47 GMT 49.600990 10.168366 22,000 285 361 0
2019-11-14 05:30:36 GMT 49.596008 10.199024 22,000 285 361 0
2019-11-14 05:30:25 GMT 49.592098 10.223892 22,000 285 359 0
2019-11-14 05:30:18 GMT 49.588284 10.246607 22,000 285 359 0
2019-11-14 05:30:04 GMT 49.579807 10.296416 22,000 285 355 64
2019-11-14 05:29:57 GMT 49.579807 10.296416 22,000 285 355 64
2019-11-14 05:29:47 GMT 49.576084 10.318389 22,000 285 356 192
2019-11-14 05:29:41 GMT 49.573200 10.335314 22,075 285 356 192
2019-11-14 05:29:35 GMT 49.565613 10.378665 22,000 285 360 1088
2019-11-14 05:29:23 GMT 49.565613 10.378665 22,000 285 360 1088
2019-11-14 05:29:11 GMT 49.561001 10.405983 22,100 284 361 1920
2019-11-14 05:29:05 GMT 49.558582 10.420903 21,950 284 362 2048
2019-11-14 05:28:53 GMT 49.553181 10.454902 21,850 285 353 1792
2019-11-14 05:28:43 GMT 49.543404 10.513693 21,425 285 348 1856
2019-11-14 05:28:29 GMT 49.543404 10.513693 20,775 285 348 1856
2019-11-14 05:28:23 GMT 49.540890 10.528391 20,800 285 344 2112
2019-11-14 05:28:10 GMT 49.535583 10.557713 20,250 285 344 2112
2019-11-14 05:28:04 GMT 49.532280 10.574712 20,300 285 340 2048
2019-11-14 05:27:52 GMT 49.527576 10.600767 19,575 285 340 2048
2019-11-14 05:27:45 GMT 49.524879 10.617395 19,550 284 338 2048
2019-11-14 05:27:33 GMT 49.519989 10.645529 19,225 284 338 2048
2019-11-14 05:27:23 GMT 49.511517 10.699570 18,825 293 370 2432
2019-11-14 05:27:10 GMT 49.511517 10.699570 18,475 293 370 2432
2019-11-14 05:27:06 GMT 49.506908 10.726665 18,175 293 370 2432
2019-11-14 05:26:55 GMT 49.505184 10.736092 17,825 293 370 2432
2019-11-14 05:26:41 GMT 49.500019 10.768012 17,450 293 370 2432
2019-11-14 05:26:35 GMT 49.496899 10.786718 17,175 293 370 2432
2019-11-14 05:26:20 GMT 49.493221 10.814184 16,750 301 375 2176
2019-11-14 05:26:10 GMT 49.485214 10.855828 16,400 301 375 2176
2019-11-14 05:26:04 GMT 49.485214 10.855828 16,050 301 375 2176
2019-11-14 05:25:49 GMT 49.483120 10.880919 15,625 301 375 2176
2019-11-14 05:25:42 GMT 49.479301 10.899403 15,225 301 375 2176
2019-11-14 05:25:30 GMT 49.473576 10.929021 14,700 301 375 2176
2019-11-14 05:25:23 GMT 49.469898 10.945723 14,375 301 375 2176
2019-11-14 05:25:07 GMT 49.460217 10.986699 13,450 301 375 2176
2019-11-14 05:25:02 GMT 49.457283 10.998279 13,275 303 377 2240
2019-11-14 05:24:53 GMT 49.448719 11.026265 13,200 306 359 2304
2019-11-14 05:24:39 GMT 49.430424 11.074293 12,425 313 308 2368
2019-11-14 05:24:33 GMT 49.423393 11.089686 12,525 315 284 2432
2019-11-14 05:24:19 GMT 49.401279 11.126621 12,225 254 150 1728
2019-11-14 05:24:00 GMT 49.372883 11.168325 11,250 254 150 1728
2019-11-14 05:23:49 GMT 49.372883 11.168325 10,950 254 150 1728
2019-11-14 05:23:35 GMT 49.367485 11.179167 10,750 235 204 2752
2019-11-14 05:23:27 GMT 49.367298 11.190587 10,650 225 217 3072
2019-11-14 05:23:22 GMT 49.365715 11.200923 10,200 214 234 3072
2019-11-14 05:23:07 GMT 49.375492 11.223835 10,125 201 248 3328
2019-11-14 05:23:02 GMT 49.380287 11.231569 9,150 195 244 3456
2019-11-14 05:22:51 GMT 49.389782 11.238797 8,950 190 256 3328
2019-11-14 05:22:38 GMT 49.407288 11.243495 8,425 188 257 2880
2019-11-14 05:22:31 GMT 49.414314 11.245374 7,900 186 257 2624
2019-11-14 05:22:18 GMT 49.429585 11.247773 7,300 184 300 1344
2019-11-14 05:21:47 GMT 49.476418 11.248293 5,800 110 199 1280
2019-11-14 05:21:38 GMT 49.481491 11.236119 5,425 102 207 1664
2019-11-14 05:21:31 GMT 49.484379 11.228324 5,125 97 200 2368
2019-11-14 05:21:22 GMT 49.486195 11.215111 5,125 97 200 2368
2019-11-14 05:21:18 GMT 49.487076 11.208282 5,000 96 193 2368

Making use of Plane Finder data

You are free to use the raw flight data, aircraft information and images provided in this report for your own purposes provided the data is correctly attributed to Plane Finder. We ask that you please credit Plane Finder and link to planefinder.net in close proximity to the content.

Optionally one of the following logos (no smaller then 150x24px) can be used and must link to planefinder.net

Embedding the Plane Finder map

You are welcome to embed the Plane Finder playback map on your website to offer visitors a more interactive experience. We suggest using the following HTML code:

<iframe src="//planefinder.net/data/report/AF1311-F-HBLH-7700-squawk-2019-11-14/map" width="800" height="600" seamless="seamless"></iframe>

Where our data comes from

Plane Finder has a global network of data feeds and antenna radars that receive data broadcast directly from aircraft. The primary technologies used are ADS-B and MLAT. We also show feeds from the FAA and a FLARM glider feed.

Click here to find out more about the Plane Finder network.

How we collect our data